Time;durP1;ratioP1;P1;durP2;ratioP2;P2;SDS_P1;SDS_P2;PMS_P1;PMS_P2;Temp;Humidity;BMP_temperature;BMP_pressure;BME280_temperature;BME280_humidity;BME280_pressure;Samples;Min_cycle;Max_cycle;Signal;HPM_P1;HPM_P2
2023/07/23 00:00:38;;;;;;;14.88;9.35;;;15.10;97.10;;;;;;5051619;28;20473;-78
2023/07/23 00:03:03;;;;;;;18.00;9.95;;;15.10;96.90;;;;;;5051562;28;20049;-78
2023/07/23 00:05:29;;;;;;;18.25;11.20;;;15.20;97.00;;;;;;5051581;28;20088;-78
2023/07/23 00:07:57;;;;;;;15.52;10.57;;;15.20;96.90;;;;;;5051579;28;20077;-78
2023/07/23 00:10:23;;;;;;;15.32;9.20;;;15.20;97.20;;;;;;5051608;28;20084;-78
2023/07/23 00:12:50;;;;;;;17.70;9.30;;;15.10;96.90;;;;;;5035082;28;20404;-78
2023/07/23 00:15:16;;;;;;;15.27;9.80;;;15.10;97.10;;;;;;5051413;28;20545;-78
2023/07/23 00:17:41;;;;;;;15.73;10.50;;;15.10;97.00;;;;;;5051816;28;20076;-78
2023/07/23 00:20:09;;;;;;;21.75;12.68;;;15.10;96.90;;;;;;5018462;28;20043;-78
2023/07/23 00:22:36;;;;;;;19.15;10.50;;;15.00;96.90;;;;;;5051719;28;20679;-78
2023/07/23 00:25:02;;;;;;;18.73;11.90;;;15.10;96.70;;;;;;5035178;28;20044;-78
2023/07/23 00:27:28;;;;;;;16.95;10.82;;;15.00;96.80;;;;;;5034762;28;20041;-78
2023/07/23 00:29:53;;;;;;;17.60;11.88;;;15.10;96.80;;;;;;5051602;28;20044;-78
2023/07/23 00:32:19;;;;;;;17.65;10.75;;;15.00;96.80;;;;;;5051251;28;20505;-78
2023/07/23 00:34:44;;;;;;;13.45;9.00;;;15.00;96.70;;;;;;5051286;28;20106;-78
2023/07/23 00:37:10;;;;;;;16.70;11.82;;;15.00;96.70;;;;;;5035027;28;20044;-78
2023/07/23 00:39:36;;;;;;;15.63;10.52;;;14.90;96.80;;;;;;5051241;28;20562;-78
2023/07/23 00:42:02;;;;;;;20.50;10.88;;;14.90;96.90;;;;;;5002017;28;20220;-77
2023/07/23 00:44:28;;;;;;;14.55;8.95;;;14.90;97.10;;;;;;5017971;28;20186;-83
2023/07/23 00:46:56;;;;;;;17.42;10.40;;;14.90;96.80;;;;;;5051257;28;20037;-78
2023/07/23 00:49:22;;;;;;;16.90;9.77;;;14.90;97.00;;;;;;5051437;28;20044;-77
2023/07/23 00:51:48;;;;;;;14.90;9.93;;;14.90;97.00;;;;;;5034489;28;20040;-78
2023/07/23 00:54:13;;;;;;;17.50;10.15;;;14.90;97.10;;;;;;5051090;28;20045;-78
2023/07/23 00:56:42;;;;;;;12.48;9.23;;;14.90;97.00;;;;;;5051145;28;20124;-76
2023/07/23 00:59:08;;;;;;;19.95;10.13;;;15.00;97.20;;;;;;5051349;28;20041;-77
2023/07/23 01:01:34;;;;;;;12.93;8.20;;;15.00;97.10;;;;;;5034537;28;20500;-77
2023/07/23 01:04:00;;;;;;;14.90;9.50;;;15.00;97.00;;;;;;5050992;28;20041;-78
2023/07/23 01:06:27;;;;;;;15.77;8.95;;;15.10;96.90;;;;;;5034723;28;20451;-78
2023/07/23 01:08:55;;;;;;;12.75;7.60;;;15.20;96.90;;;;;;5053755;28;20045;-78
2023/07/23 01:11:25;;;;;;;16.67;9.82;;;15.10;96.80;;;;;;5054560;28;20128;-77
2023/07/23 01:13:51;;;;;;;15.25;8.90;;;15.20;96.70;;;;;;5054870;28;20056;-78
2023/07/23 01:16:18;;;;;;;13.48;8.18;;;15.20;96.80;;;;;;5054726;28;20472;-77
2023/07/23 01:18:44;;;;;;;15.13;9.02;;;15.20;96.80;;;;;;5054580;28;20036;-78
2023/07/23 01:21:10;;;;;;;14.77;9.57;;;15.10;96.90;;;;;;5037890;28;20041;-77
2023/07/23 01:23:36;;;;;;;14.77;8.23;;;15.10;96.90;;;;;;5037987;28;20049;-78
2023/07/23 01:26:03;;;;;;;16.88;10.18;;;15.10;96.90;;;;;;5037719;28;20047;-78
2023/07/23 01:28:29;;;;;;;17.52;10.25;;;15.10;96.90;;;;;;5037716;28;20036;-77
2023/07/23 01:30:55;;;;;;;14.15;8.95;;;15.10;97.00;;;;;;5037671;28;20098;-78
2023/07/23 01:33:22;;;;;;;14.55;8.93;;;15.10;97.00;;;;;;5054279;28;20508;-78
2023/07/23 01:35:52;;;;;;;17.30;10.23;;;15.10;97.00;;;;;;5054174;28;20049;-77
2023/07/23 01:38:18;;;;;;;13.38;8.77;;;15.00;97.00;;;;;;5054142;28;20564;-78
2023/07/23 01:40:44;;;;;;;17.52;9.25;;;15.10;96.80;;;;;;5037677;28;20166;-78
2023/07/23 01:43:11;;;;;;;13.18;7.38;;;15.10;96.70;;;;;;5053845;28;20052;-77
2023/07/23 01:45:40;;;;;;;14.93;8.82;;;15.10;96.70;;;;;;5037596;28;20132;-78
2023/07/23 01:48:06;;;;;;;17.35;8.15;;;15.00;96.80;;;;;;5037652;28;20049;-78
2023/07/23 01:50:32;;;;;;;14.07;9.68;;;15.00;96.70;;;;;;5053930;28;20512;-78
2023/07/23 01:52:58;;;;;;;15.05;8.63;;;15.00;96.90;;;;;;5053764;28;20128;-78
2023/07/23 01:55:23;;;;;;;14.27;8.73;;;15.00;97.00;;;;;;5037117;28;20040;-78
2023/07/23 01:57:49;;;;;;;17.58;8.88;;;15.00;96.80;;;;;;5054025;28;20123;-77
2023/07/23 02:00:15;;;;;;;16.05;9.70;;;15.10;96.60;;;;;;5037248;28;20566;-77
2023/07/23 02:02:40;;;;;;;19.13;9.50;;;15.10;96.90;;;;;;5053992;28;20128;-77
2023/07/23 02:05:06;;;;;;;15.73;10.15;;;15.10;97.20;;;;;;5053560;28;20041;-78
2023/07/23 02:07:32;;;;;;;17.10;10.05;;;15.10;97.10;;;;;;5037087;28;20132;-78
2023/07/23 02:09:58;;;;;;;13.80;9.20;;;15.10;97.10;;;;;;5053511;28;20128;-77
2023/07/23 02:12:23;;;;;;;19.02;10.88;;;15.00;97.20;;;;;;5053398;28;20045;-77
2023/07/23 02:14:49;;;;;;;13.68;9.25;;;15.00;97.40;;;;;;5053393;28;20037;-78
2023/07/23 02:17:15;;;;;;;13.80;8.82;;;15.00;97.40;;;;;;5037108;28;20033;-78
2023/07/23 02:19:40;;;;;;;16.48;10.00;;;15.00;97.30;;;;;;5052414;28;20398;-78
2023/07/23 02:22:07;;;;;;;15.63;9.65;;;15.00;97.30;;;;;;5053372;28;20066;-77
2023/07/23 02:24:32;;;;;;;16.35;9.70;;;15.00;97.20;;;;;;5053210;28;20052;-78
2023/07/23 02:26:58;;;;;;;14.60;8.80;;;15.00;97.20;;;;;;5053224;28;20059;-78
2023/07/23 02:29:24;;;;;;;13.70;9.43;;;14.90;97.10;;;;;;5053180;28;20041;-78
2023/07/23 02:31:49;;;;;;;14.10;9.90;;;14.90;97.00;;;;;;5053296;28;20066;-78
2023/07/23 02:34:15;;;;;;;14.00;9.23;;;14.90;96.90;;;;;;5053208;28;20048;-78
2023/07/23 02:36:40;;;;;;;13.15;9.10;;;14.90;96.80;;;;;;5036514;28;20503;-78
2023/07/23 02:39:06;;;;;;;16.45;8.73;;;14.90;96.60;;;;;;5053078;28;20116;-77
2023/07/23 02:41:32;;;;;;;14.40;8.43;;;14.90;96.40;;;;;;5036339;28;20049;-77
2023/07/23 02:43:57;;;;;;;11.98;7.53;;;14.90;96.50;;;;;;5036172;28;20151;-77
2023/07/23 02:46:23;;;;;;;13.48;8.77;;;14.90;96.30;;;;;;5052879;28;20051;-78
2023/07/23 02:48:49;;;;;;;15.38;8.63;;;14.90;96.40;;;;;;5036113;28;20071;-77
2023/07/23 02:51:15;;;;;;;16.27;9.38;;;14.80;96.30;;;;;;5052952;28;20131;-78
2023/07/23 02:53:40;;;;;;;17.73;10.27;;;14.80;96.30;;;;;;5036529;28;20436;-77
2023/07/23 02:56:06;;;;;;;14.52;9.32;;;14.80;96.30;;;;;;5036223;28;20436;-78
2023/07/23 02:58:32;;;;;;;13.65;8.23;;;14.80;96.40;;;;;;5052647;28;20045;-78
2023/07/23 03:00:58;;;;;;;11.27;9.23;;;14.80;96.40;;;;;;5052875;28;20083;-78
2023/07/23 03:03:24;;;;;;;14.30;9.32;;;14.80;96.40;;;;;;5035896;28;20512;-78
2023/07/23 03:05:50;;;;;;;15.55;9.70;;;14.80;96.50;;;;;;5052664;28;20106;-78
2023/07/23 03:08:15;;;;;;;14.50;9.07;;;14.80;96.60;;;;;;5052516;28;20119;-78
2023/07/23 03:10:41;;;;;;;15.35;9.30;;;14.80;96.50;;;;;;5052444;28;20044;-77
2023/07/23 03:13:08;;;;;;;16.58;9.80;;;14.80;96.50;;;;;;5052379;28;20041;-77
2023/07/23 03:15:34;;;;;;;13.55;9.63;;;14.80;96.50;;;;;;5035775;28;20040;-77
2023/07/23 03:18:03;;;;;;;13.23;9.10;;;14.90;96.60;;;;;;5036071;28;20386;-78
2023/07/23 03:20:29;;;;;;;15.38;9.77;;;14.80;96.60;;;;;;5052482;28;20363;-77
2023/07/23 03:22:54;;;;;;;18.67;9.55;;;14.90;96.60;;;;;;5035585;28;20075;-78
2023/07/23 03:25:20;;;;;;;16.42;9.30;;;14.90;96.70;;;;;;5052302;28;20045;-78
2023/07/23 03:27:46;;;;;;;14.32;9.60;;;14.90;96.60;;;;;;5052390;28;20516;-78
2023/07/23 03:30:12;;;;;;;16.35;10.32;;;14.90;96.70;;;;;;5051743;28;20301;-78
2023/07/23 03:32:38;;;;;;;14.05;8.75;;;14.90;96.70;;;;;;5051951;28;20076;-77
2023/07/23 03:35:05;;;;;;;17.98;10.75;;;15.00;96.80;;;;;;5051944;28;20041;-77
2023/07/23 03:37:31;;;;;;;13.65;10.05;;;15.00;96.70;;;;;;5019091;28;20039;-78
2023/07/23 03:39:56;;;;;;;14.75;9.05;;;15.00;96.70;;;;;;5052118;28;20048;-78
2023/07/23 03:42:24;;;;;;;15.73;8.30;;;15.00;96.50;;;;;;5051924;28;20489;-78
2023/07/23 03:44:50;;;;;;;12.85;8.35;;;15.00;96.40;;;;;;5051607;28;20064;-78
2023/07/23 03:47:18;;;;;;;12.73;8.60;;;15.00;96.40;;;;;;5052037;28;20036;-77
2023/07/23 03:49:44;;;;;;;13.18;10.02;;;15.00;96.40;;;;;;5035472;28;20045;-77
2023/07/23 03:52:10;;;;;;;19.00;10.82;;;15.00;96.40;;;;;;5051798;28;20132;-77
2023/07/23 03:54:38;;;;;;;13.82;8.27;;;15.00;96.50;;;;;;5051659;28;20082;-77
2023/07/23 03:57:04;;;;;;;14.55;10.38;;;14.90;96.40;;;;;;5051889;28;20033;-78
2023/07/23 03:59:38;;;;;;;12.90;8.88;;;15.00;96.50;;;;;;5051529;28;20124;-78
2023/07/23 04:02:04;;;;;;;15.90;9.95;;;14.90;96.60;;;;;;5051466;28;20085;-78
2023/07/23 04:04:30;;;;;;;14.10;9.35;;;14.90;96.60;;;;;;5034219;28;20378;-78
2023/07/23 04:06:55;;;;;;;13.93;9.50;;;14.90;96.60;;;;;;5050752;28;20045;-77
2023/07/23 04:09:21;;;;;;;12.18;8.65;;;14.90;96.50;;;;;;5034297;28;20044;-77
2023/07/23 04:11:47;;;;;;;16.10;9.50;;;14.90;96.60;;;;;;5051332;28;20041;-77
2023/07/23 04:14:13;;;;;;;12.55;9.48;;;14.90;96.60;;;;;;5051531;28;20114;-78
2023/07/23 04:16:39;;;;;;;16.70;9.32;;;14.90;96.60;;;;;;5051511;28;20033;-77
2023/07/23 04:19:04;;;;;;;15.93;9.10;;;14.90;96.50;;;;;;5035025;28;20095;-78
2023/07/23 04:21:30;;;;;;;12.23;7.88;;;14.90;96.50;;;;;;5051484;28;20098;-77
2023/07/23 04:23:57;;;;;;;12.30;8.38;;;14.90;96.50;;;;;;5034867;28;20041;-77
2023/07/23 04:26:26;;;;;;;14.43;10.07;;;14.90;96.50;;;;;;5034958;28;20099;-77
2023/07/23 04:28:52;;;;;;;12.80;8.85;;;14.90;96.40;;;;;;5051799;28;20056;-77
2023/07/23 04:31:18;;;;;;;14.98;9.60;;;14.90;96.50;;;;;;5051426;28;20041;-77
2023/07/23 04:33:44;;;;;;;17.13;10.35;;;14.90;96.60;;;;;;5051484;28;20091;-78
2023/07/23 04:36:10;;;;;;;14.90;9.73;;;14.90;96.90;;;;;;5051285;28;20040;-78
2023/07/23 04:38:36;;;;;;;15.18;9.88;;;14.90;96.90;;;;;;5051446;28;20033;-78
2023/07/23 04:41:02;;;;;;;14.95;9.32;;;14.90;96.90;;;;;;5034990;28;20094;-78
2023/07/23 04:43:28;;;;;;;11.95;9.25;;;14.90;96.70;;;;;;5036865;28;20397;-77
2023/07/23 04:45:54;;;;;;;13.18;9.13;;;14.90;96.80;;;;;;5055525;28;20059;-77
2023/07/23 04:48:19;;;;;;;13.35;9.07;;;14.80;96.80;;;;;;5055377;28;20073;-77
2023/07/23 04:50:45;;;;;;;12.48;9.75;;;14.80;96.80;;;;;;5055379;28;20041;-78
2023/07/23 04:53:11;;;;;;;13.05;9.15;;;14.90;96.80;;;;;;5021968;28;20033;-78
2023/07/23 04:55:37;;;;;;;13.88;10.05;;;14.80;96.70;;;;;;5055036;28;20491;-77
2023/07/23 04:58:03;;;;;;;14.35;10.13;;;14.80;96.80;;;;;;5054929;28;20045;-77
2023/07/23 05:00:29;;;;;;;13.20;8.60;;;14.80;96.80;;;;;;5038764;28;20094;-77
2023/07/23 05:02:54;;;;;;;12.23;9.15;;;14.80;96.90;;;;;;5054938;28;20048;-77
2023/07/23 05:05:20;;;;;;;14.30;9.20;;;14.80;96.80;;;;;;5038169;28;20052;-77
2023/07/23 05:07:46;;;;;;;14.43;9.38;;;14.80;96.80;;;;;;5021860;28;20045;-77
2023/07/23 05:10:11;;;;;;;16.48;10.02;;;14.80;96.80;;;;;;5055186;28;20040;-77
2023/07/23 05:12:39;;;;;;;12.88;9.20;;;14.80;96.80;;;;;;5038278;28;20547;-78
2023/07/23 05:15:14;;;;;;;13.38;9.40;;;14.80;96.60;;;;;;5054654;28;20033;-78
2023/07/23 05:17:41;;;;;;;13.13;9.23;;;14.90;96.50;;;;;;5038085;28;20108;-78
2023/07/23 05:20:07;;;;;;;11.48;8.40;;;14.80;96.50;;;;;;5038266;28;20037;-78
2023/07/23 05:22:37;;;;;;;14.25;9.88;;;14.90;96.50;;;;;;5054541;28;20048;-78
2023/07/23 05:25:03;;;;;;;11.68;8.57;;;14.80;96.40;;;;;;5054730;28;20086;-77
2023/07/23 05:27:29;;;;;;;15.20;9.35;;;14.80;96.50;;;;;;5054782;28;20488;-77
2023/07/23 05:29:55;;;;;;;13.63;8.50;;;14.80;96.50;;;;;;5037873;28;20045;-77
2023/07/23 05:32:21;;;;;;;12.63;8.65;;;14.80;96.50;;;;;;5054206;28;20045;-77
2023/07/23 05:34:47;;;;;;;15.45;9.95;;;14.80;96.50;;;;;;5054412;28;20029;-77
2023/07/23 05:37:13;;;;;;;14.70;9.52;;;14.80;96.40;;;;;;5021258;28;20485;-77
2023/07/23 05:39:39;;;;;;;13.50;9.10;;;14.80;96.60;;;;;;5037644;28;20044;-77
2023/07/23 05:42:05;;;;;;;14.23;9.45;;;14.80;96.50;;;;;;5037535;28;20041;-78
2023/07/23 05:44:32;;;;;;;11.57;8.88;;;14.80;96.50;;;;;;5037163;28;20061;-78
2023/07/23 05:46:57;;;;;;;13.60;9.55;;;14.80;96.50;;;;;;5053921;28;20128;-77
2023/07/23 05:49:24;;;;;;;12.55;8.82;;;14.90;96.40;;;;;;5053953;28;20144;-78
2023/07/23 05:51:50;;;;;;;15.55;9.07;;;14.90;96.20;;;;;;5037642;28;20405;-78
2023/07/23 05:54:16;;;;;;;15.57;10.30;;;14.90;96.20;;;;;;5036990;28;20108;-77
2023/07/23 05:56:42;;;;;;;10.90;9.25;;;14.90;96.30;;;;;;5053821;28;20037;-78
2023/07/23 05:59:07;;;;;;;13.60;10.20;;;14.90;96.20;;;;;;5053830;28;20037;-77
2023/07/23 06:01:33;;;;;;;13.10;9.30;;;14.90;96.20;;;;;;5037305;28;20401;-78
2023/07/23 06:03:59;;;;;;;14.82;10.23;;;15.00;96.20;;;;;;5053663;28;20076;-77
2023/07/23 06:06:24;;;;;;;17.30;10.35;;;15.00;96.10;;;;;;5053762;28;20444;-78
2023/07/23 06:08:50;;;;;;;17.00;10.52;;;14.90;96.10;;;;;;5054025;28;20045;-78
2023/07/23 06:11:16;;;;;;;13.55;9.68;;;14.90;96.10;;;;;;5037080;28;20127;-78
2023/07/23 06:13:42;;;;;;;9.82;8.70;;;15.00;96.10;;;;;;5053950;28;20486;-78
2023/07/23 06:16:07;;;;;;;13.10;9.38;;;15.00;96.00;;;;;;5020393;28;20108;-77
2023/07/23 06:18:36;;;;;;;12.02;9.38;;;15.00;96.20;;;;;;5053609;28;20056;-77
2023/07/23 06:21:02;;;;;;;12.82;9.57;;;15.00;96.00;;;;;;5053535;28;20033;-77
2023/07/23 06:23:28;;;;;;;12.65;9.15;;;15.00;95.90;;;;;;5053571;28;20060;-77
2023/07/23 06:25:57;;;;;;;17.88;10.55;;;15.00;95.70;;;;;;5036689;28;20049;-77
2023/07/23 06:28:23;;;;;;;15.45;10.07;;;15.10;95.80;;;;;;5053503;28;20045;-78
2023/07/23 06:30:55;;;;;;;15.15;10.32;;;15.00;95.80;;;;;;5053525;28;20084;-77
2023/07/23 06:33:21;;;;;;;16.42;10.00;;;15.10;95.80;;;;;;5053185;28;20041;-77
2023/07/23 06:35:48;;;;;;;14.15;10.80;;;15.10;95.80;;;;;;5053108;28;20041;-78
2023/07/23 06:38:14;;;;;;;16.42;9.80;;;15.10;95.90;;;;;;5053442;28;20123;-78
2023/07/23 06:40:48;;;;;;;15.70;10.60;;;15.20;95.90;;;;;;5053005;28;20045;-77
2023/07/23 06:43:14;;;;;;;14.15;11.00;;;15.20;95.80;;;;;;5053044;28;20060;-77
2023/07/23 06:45:40;;;;;;;15.82;12.20;;;15.20;96.00;;;;;;5052899;28;20045;-77
2023/07/23 06:48:06;;;;;;;16.13;10.50;;;15.20;96.20;;;;;;5052840;28;20423;-78
2023/07/23 06:50:32;;;;;;;15.43;10.70;;;15.30;96.20;;;;;;5053127;28;20033;-78
2023/07/23 06:52:58;;;;;;;15.02;10.23;;;15.30;96.10;;;;;;5052785;28;20543;-78
2023/07/23 06:55:24;;;;;;;15.93;12.23;;;15.30;96.10;;;;;;5052949;28;20216;-78
2023/07/23 06:57:50;;;;;;;18.50;11.55;;;15.30;96.20;;;;;;5052897;28;20563;-77
2023/07/23 07:00:16;;;;;;;15.93;11.13;;;15.30;96.40;;;;;;5052927;28;20120;-77
2023/07/23 07:02:42;;;;;;;16.58;11.70;;;15.30;96.50;;;;;;5019866;28;20535;-77
2023/07/23 07:05:08;;;;;;;17.33;12.02;;;15.40;96.60;;;;;;5052160;28;20388;-77
2023/07/23 07:07:35;;;;;;;18.80;12.38;;;15.40;96.60;;;;;;5052533;28;20496;-78
2023/07/23 07:10:02;;;;;;;19.67;11.65;;;15.40;96.90;;;;;;5052830;28;20037;-77
2023/07/23 07:12:28;;;;;;;18.38;13.13;;;15.40;97.00;;;;;;5052301;28;20123;-77
2023/07/23 07:14:54;;;;;;;17.35;11.00;;;15.40;97.20;;;;;;5052697;28;20102;-77
2023/07/23 07:17:20;;;;;;;17.67;11.75;;;15.50;97.00;;;;;;5052426;28;20443;-77
2023/07/23 07:19:46;;;;;;;19.13;13.48;;;15.60;97.00;;;;;;5052448;28;20070;-77
2023/07/23 07:22:12;;;;;;;16.80;12.70;;;15.60;96.90;;;;;;5052611;28;20102;-78
2023/07/23 07:24:37;;;;;;;17.27;12.18;;;15.70;97.20;;;;;;5052220;28;20509;-77
2023/07/23 07:27:08;;;;;;;24.25;13.95;;;15.70;97.10;;;;;;5035741;28;20124;-77
2023/07/23 07:29:34;;;;;;;17.75;13.07;;;15.90;97.30;;;;;;5052604;28;20371;-78
2023/07/23 07:32:00;;;;;;;20.85;12.55;;;15.90;97.10;;;;;;5035536;28;20052;-78
2023/07/23 07:34:26;;;;;;;20.83;12.95;;;16.00;96.90;;;;;;5052005;28;20041;-77
2023/07/23 07:36:52;;;;;;;19.80;14.35;;;16.00;97.00;;;;;;5052010;28;20044;-77
2023/07/23 07:39:17;;;;;;;20.98;13.80;;;16.00;96.80;;;;;;5019228;28;20120;-77
2023/07/23 07:41:43;;;;;;;16.52;12.30;;;16.00;96.70;;;;;;5051895;28;20123;-77
2023/07/23 07:44:09;;;;;;;18.85;14.32;;;16.10;96.70;;;;;;5051758;28;20065;-77
2023/07/23 07:46:35;;;;;;;17.95;13.07;;;16.00;96.60;;;;;;5018826;28;20488;-77
2023/07/23 07:49:00;;;;;;;19.67;13.68;;;16.00;96.70;;;;;;5052125;28;20048;-77
2023/07/23 07:51:26;;;;;;;24.67;15.25;;;16.10;96.60;;;;;;5051839;28;20052;-77
2023/07/23 07:53:52;;;;;;;20.95;15.32;;;16.10;96.60;;;;;;5051769;28;20037;-77
2023/07/23 07:56:18;;;;;;;22.17;16.42;;;16.10;96.60;;;;;;5035221;28;20080;-77
2023/07/23 07:58:47;;;;;;;23.58;16.58;;;16.20;96.50;;;;;;5052224;28;20310;-77
2023/07/23 08:01:13;;;;;;;19.77;16.35;;;16.20;96.50;;;;;;5051720;28;20075;-77
2023/07/23 08:03:39;;;;;;;23.17;17.85;;;16.20;96.50;;;;;;5051938;28;20080;-77
2023/07/23 08:06:06;;;;;;;20.48;18.00;;;16.20;96.50;;;;;;5034984;28;20045;-77
2023/07/23 08:08:33;;;;;;;20.20;16.75;;;16.20;96.40;;;;;;5034996;28;20037;-76
2023/07/23 08:11:01;;;;;;;22.42;18.23;;;16.20;96.40;;;;;;5051443;28;20083;-77
2023/07/23 08:13:27;;;;;;;21.88;18.70;;;16.30;96.20;;;;;;5051480;28;20128;-77
2023/07/23 08:15:54;;;;;;;22.45;19.20;;;16.30;96.30;;;;;;5051611;28;20049;-77
2023/07/23 08:18:20;;;;;;;18.95;17.00;;;16.30;96.30;;;;;;5055453;28;20033;-77
2023/07/23 08:20:46;;;;;;;17.55;15.85;;;16.40;96.10;;;;;;5055684;28;20072;-77
2023/07/23 08:23:12;;;;;;;17.00;15.30;;;16.40;95.80;;;;;;5055708;28;20084;-77
2023/07/23 08:25:38;;;;;;;15.98;14.32;;;16.50;95.20;;;;;;5055510;28;20081;-77
2023/07/23 08:28:06;;;;;;;16.65;14.95;;;16.50;95.10;;;;;;5055526;28;20041;-76
2023/07/23 08:30:32;;;;;;;17.77;15.95;;;16.60;95.20;;;;;;5055759;28;20107;-76
2023/07/23 08:33:00;;;;;;;16.70;15.00;;;16.60;95.10;;;;;;5055357;28;20119;-77
2023/07/23 08:35:27;;;;;;;18.58;15.63;;;16.60;94.90;;;;;;5038683;28;20045;-77
2023/07/23 08:37:54;;;;;;;17.65;15.65;;;16.60;94.40;;;;;;5055286;28;20086;-77
2023/07/23 08:40:21;;;;;;;19.35;16.73;;;16.60;94.40;;;;;;5038790;28;20045;-76
2023/07/23 08:42:56;;;;;;;25.67;20.67;;;16.60;93.90;;;;;;5038434;28;20137;-77
2023/07/23 08:46:00;;;;;;;22.42;20.10;;;16.50;93.60;;;;;;5055195;28;20053;-76
2023/07/23 08:48:57;;;;;;;22.30;20.00;;;16.40;94.00;;;;;;5055407;28;20498;-77
2023/07/23 08:51:32;;;;;;;20.73;18.73;;;16.50;93.90;;;;;;5034767;28;20399;-77
2023/07/23 08:53:57;;;;;;;;;;;16.50;93.80;;;;;;5055457;28;20120;-76
2023/07/23 08:56:23;;;;;;;20.50;18.50;;;16.50;93.70;;;;;;5055100;28;20012;-77
2023/07/23 08:58:50;;;;;;;19.88;17.88;;;16.50;93.60;;;;;;5054949;28;20037;-77
2023/07/23 09:01:16;;;;;;;20.90;18.67;;;16.50;93.70;;;;;;5054891;28;20033;-77
2023/07/23 09:03:42;;;;;;;18.48;16.58;;;16.50;93.60;;;;;;5054875;28;20041;-76
2023/07/23 09:06:10;;;;;;;17.05;15.32;;;16.50;93.80;;;;;;5054727;28;20044;-76
2023/07/23 09:08:37;;;;;;;19.83;17.92;;;16.60;93.40;;;;;;5055082;28;20068;-77
2023/07/23 09:11:04;;;;;;;20.42;16.48;;;16.60;93.20;;;;;;5038170;28;20049;-76
2023/07/23 09:13:37;;;;;;;25.35;17.63;;;16.60;93.20;;;;;;5054597;28;20134;-77
2023/07/23 09:16:06;;;;;;;20.02;17.80;;;16.60;93.20;;;;;;5037917;28;20043;-76
2023/07/23 09:18:41;;;;;;;23.17;19.50;;;16.60;93.50;;;;;;5055041;28;20099;-76
2023/07/23 09:21:09;;;;;;;19.02;15.25;;;16.60;93.50;;;;;;5054626;28;20041;-76
2023/07/23 09:23:34;;;;;;;20.77;18.10;;;16.70;93.60;;;;;;5054530;28;20041;-76
2023/07/23 09:26:00;;;;;;;22.38;18.20;;;16.70;93.70;;;;;;5054654;28;20075;-77
2023/07/23 09:28:26;;;;;;;23.27;18.63;;;16.70;93.60;;;;;;5053665;28;20443;-77
2023/07/23 09:30:57;;;;;;;21.73;17.70;;;16.70;93.60;;;;;;5054622;28;20052;-77
2023/07/23 09:33:51;;;;;;;20.48;18.35;;;16.70;93.80;;;;;;5054270;28;20041;-77
2023/07/23 09:36:22;;;;;;;20.50;18.20;;;16.70;93.60;;;;;;5053187;28;20102;-76
2023/07/23 09:39:05;;;;;;;24.25;18.48;;;16.70;93.70;;;;;;5054289;28;20047;-76
2023/07/23 09:41:33;;;;;;;22.92;18.20;;;16.70;93.40;;;;;;5037548;28;20045;-77
2023/07/23 09:44:10;;;;;;;24.58;18.95;;;16.80;93.50;;;;;;5053957;28;20517;-76
2023/07/23 09:46:38;;;;;;;25.90;19.63;;;16.80;93.60;;;;;;5054061;28;20103;-76
2023/07/23 09:49:03;;;;;;;23.30;19.90;;;16.70;93.40;;;;;;5054325;28;20044;-76
2023/07/23 09:51:32;;;;;;;21.17;18.38;;;16.70;93.60;;;;;;5037381;28;20067;-77
2023/07/23 09:54:02;;;;;;;24.95;19.13;;;16.80;93.00;;;;;;5053879;28;20051;-77
2023/07/23 09:56:28;;;;;;;23.88;20.52;;;16.80;93.00;;;;;;5053927;28;20516;-77
2023/07/23 09:58:54;;;;;;;24.23;19.75;;;16.90;93.10;;;;;;5053907;28;20048;-77
2023/07/23 10:01:20;;;;;;;23.30;19.63;;;16.90;92.90;;;;;;5053739;28;20039;-77
2023/07/23 10:03:49;;;;;;;20.92;18.08;;;16.90;93.00;;;;;;5037387;28;20079;-77
2023/07/23 10:06:20;;;;;;;21.50;18.85;;;16.90;93.00;;;;;;5037051;28;20056;-78
2023/07/23 10:08:47;;;;;;;21.67;17.58;;;17.00;92.50;;;;;;5037158;28;20091;-76
2023/07/23 10:11:14;;;;;;;22.35;19.52;;;17.10;92.70;;;;;;5053585;28;20048;-76
2023/07/23 10:13:41;;;;;;;22.40;17.63;;;17.10;92.30;;;;;;5053611;28;20485;-77
2023/07/23 10:16:22;;;;;;;22.13;18.70;;;17.20;92.60;;;;;;5054024;28;20049;-77
2023/07/23 10:18:50;;;;;;;19.75;17.05;;;17.30;92.50;;;;;;5053532;28;20508;-76
2023/07/23 10:21:16;;;;;;;24.45;19.45;;;17.30;92.40;;;;;;5053470;28;20120;-77
2023/07/23 10:23:42;;;;;;;23.80;19.38;;;17.30;92.00;;;;;;5053599;28;20124;-76
2023/07/23 10:26:22;;;;;;;22.08;19.38;;;17.30;92.10;;;;;;5053312;28;20122;-77
2023/07/23 10:28:50;;;;;;;22.20;19.00;;;17.40;91.80;;;;;;5053320;28;20127;-76
2023/07/23 10:31:29;;;;;;;22.55;17.08;;;17.50;92.10;;;;;;5036927;28;20150;-77
2023/07/23 10:33:55;;;;;;;20.98;16.83;;;17.50;92.00;;;;;;5036547;28;20092;-77
2023/07/23 10:36:22;;;;;;;19.90;16.33;;;17.50;91.80;;;;;;5053176;28;20121;-76
2023/07/23 10:39:17;;;;;;;19.40;16.85;;;17.50;91.80;;;;;;5053395;28;20029;-77
2023/07/23 10:42:02;;;;;;;20.08;16.52;;;17.60;91.80;;;;;;5035711;28;20463;-77
2023/07/23 10:44:28;;;;;;;21.35;17.75;;;17.50;91.20;;;;;;5052794;28;20183;-77
2023/07/23 10:46:58;;;;;;;19.27;17.27;;;17.50;91.80;;;;;;5036414;28;20049;-77
2023/07/23 10:49:28;;;;;;;19.80;17.58;;;17.50;92.00;;;;;;5052903;28;20041;-77
2023/07/23 10:51:54;;;;;;;19.88;15.85;;;17.60;91.80;;;;;;5036162;28;20485;-77
2023/07/23 10:54:21;;;;;;;26.00;18.98;;;17.60;91.70;;;;;;5052845;28;20047;-77
2023/07/23 10:56:49;;;;;;;22.10;19.17;;;17.60;91.90;;;;;;5036313;28;20037;-77
2023/07/23 10:59:18;;;;;;;21.30;19.10;;;17.60;92.00;;;;;;5053069;28;20095;-77
2023/07/23 11:01:45;;;;;;;20.30;17.92;;;17.60;92.00;;;;;;5052632;28;20045;-77
2023/07/23 11:04:13;;;;;;;21.92;16.75;;;17.60;91.90;;;;;;5052868;28;20037;-77
2023/07/23 11:06:52;;;;;;;19.35;17.27;;;17.60;91.90;;;;;;5052647;28;20227;-77
2023/07/23 11:09:24;;;;;;;20.15;17.67;;;17.50;92.10;;;;;;5037953;28;20044;-77
2023/07/23 11:11:51;;;;;;;21.13;16.63;;;17.50;92.40;;;;;;5052455;28;20052;-77
2023/07/23 11:14:35;;;;;;;20.13;17.58;;;17.50;92.80;;;;;;5052426;28;20041;-76
2023/07/23 11:17:03;;;;;;;22.10;16.90;;;17.40;92.80;;;;;;5052514;28;20050;-77
2023/07/23 11:19:31;;;;;;;22.63;18.73;;;17.30;93.10;;;;;;5019496;28;20504;-76
2023/07/23 11:22:14;;;;;;;22.90;18.55;;;17.30;93.30;;;;;;5035725;28;20080;-77
2023/07/23 11:24:40;;;;;;;19.02;16.92;;;17.30;93.40;;;;;;5052385;28;20466;-77
2023/07/23 11:27:06;;;;;;;19.15;17.05;;;17.30;93.80;;;;;;5052146;28;20076;-77
2023/07/23 11:29:32;;;;;;;21.05;18.65;;;17.20;93.90;;;;;;5035424;28;20076;-77
2023/07/23 11:32:00;;;;;;;21.85;19.25;;;17.20;94.30;;;;;;5035343;28;20124;-76
2023/07/23 11:34:25;;;;;;;22.40;19.48;;;17.20;94.30;;;;;;5052120;28;20044;-77
2023/07/23 11:36:54;;;;;;;20.98;18.70;;;17.20;94.10;;;;;;5052107;28;20037;-77
2023/07/23 11:39:23;;;;;;;21.13;18.02;;;17.30;94.00;;;;;;5052200;28;20424;-76
2023/07/23 11:41:49;;;;;;;20.00;17.83;;;17.30;94.00;;;;;;5051989;28;20052;-77
2023/07/23 11:44:15;;;;;;;20.90;18.73;;;17.40;93.90;;;;;;5051801;28;20061;-76
2023/07/23 11:46:41;;;;;;;20.08;18.00;;;17.40;93.80;;;;;;5052112;28;20072;-77
2023/07/23 11:49:10;;;;;;;21.02;18.77;;;17.50;93.70;;;;;;5052046;28;20045;-77
2023/07/23 11:51:37;;;;;;;18.27;16.30;;;17.50;93.70;;;;;;5051685;28;20041;-76
2023/07/23 11:54:09;;;;;;;21.02;17.33;;;17.50;93.70;;;;;;5035046;28;20049;-77
2023/07/23 11:56:45;;;;;;;17.90;16.10;;;17.60;93.90;;;;;;5051859;28;20044;-77
2023/07/23 11:59:13;;;;;;;18.52;16.45;;;17.50;94.10;;;;;;5035161;28;20039;-77
2023/07/23 12:01:40;;;;;;;18.45;16.58;;;17.50;94.20;;;;;;5051680;28;20493;-77
2023/07/23 12:04:07;;;;;;;16.77;14.98;;;17.50;94.20;;;;;;5051848;28;20140;-77
2023/07/23 12:06:36;;;;;;;16.85;15.27;;;17.60;94.20;;;;;;5052073;28;20447;-77
2023/07/23 12:09:05;;;;;;;17.30;15.35;;;17.70;94.20;;;;;;5051685;28;20045;-77
2023/07/23 12:11:32;;;;;;;15.73;14.23;;;17.70;94.40;;;;;;5051494;28;20045;-77
2023/07/23 12:14:06;;;;;;;16.25;14.55;;;17.70;94.60;;;;;;5035145;28;20045;-77
2023/07/23 12:16:32;;;;;;;17.70;15.80;;;17.70;94.30;;;;;;5051605;28;20505;-77
2023/07/23 12:19:03;;;;;;;14.68;13.15;;;17.80;94.60;;;;;;5051502;28;20047;-77
2023/07/23 12:21:29;;;;;;;17.13;15.40;;;18.00;94.40;;;;;;5051531;28;20120;-77
2023/07/23 12:23:54;;;;;;;17.23;15.50;;;18.10;93.80;;;;;;5035001;28;20076;-77
2023/07/23 12:26:20;;;;;;;16.67;14.98;;;18.20;93.30;;;;;;5051573;28;20040;-76
2023/07/23 12:28:46;;;;;;;17.17;14.60;;;18.30;93.30;;;;;;5035220;28;20082;-77
2023/07/23 12:31:11;;;;;;;15.35;13.85;;;18.20;93.20;;;;;;5034916;28;20412;-77